Time;durP1;ratioP1;P1;durP2;ratioP2;P2;SDS_P1;SDS_P2;PMS_P1;PMS_P2;Temp;Humidity;BMP_temperature;BMP_pressure;BME280_temperature;BME280_humidity;BME280_pressure;Samples;Min_cycle;Max_cycle;Signal;HPM_P1;HPM_P2
2024/01/18 00:00:22;;;;;;;12.60;8.48;;;;;;;3.72;49.52;98620.91;673862;29;1196;-92
2024/01/18 00:01:04;;;;;;;14.13;8.35;;;;;;;3.72;50.01;98612.31;677660;29;1287;-91
2024/01/18 00:01:53;;;;;;;15.68;9.00;;;;;;;3.63;49.85;98607.81;676997;29;1564;-92
2024/01/18 00:02:16;;;;;;;14.68;8.63;;;;;;;3.64;49.52;98604.38;669948;29;1262;-91
2024/01/18 00:02:48;;;;;;;16.80;8.90;;;;;;;3.69;49.69;98620.84;670078;29;1139;-92
2024/01/18 00:03:15;;;;;;;16.73;9.02;;;;;;;3.67;49.47;98607.00;674954;29;1348;-91
2024/01/18 00:03:46;;;;;;;15.63;8.65;;;;;;;3.67;49.74;98619.91;674769;29;1344;-91
2024/01/18 00:04:12;;;;;;;11.77;8.35;;;;;;;3.68;49.46;98624.25;670123;29;1361;-92
2024/01/18 00:04:46;;;;;;;12.00;8.50;;;;;;;3.65;49.54;98614.75;675287;29;1236;-92
2024/01/18 00:05:11;;;;;;;16.55;9.32;;;;;;;3.70;49.43;98622.56;673335;29;1657;-91
2024/01/18 00:05:43;;;;;;;16.38;9.80;;;;;;;3.63;49.65;98616.44;669053;29;1392;-91
2024/01/18 00:06:17;;;;;;;13.35;9.27;;;;;;;3.74;50.17;98629.53;669976;29;1267;-91
2024/01/18 00:06:56;;;;;;;17.42;9.02;;;;;;;3.69;49.92;98621.69;669401;29;1360;-92
2024/01/18 00:07:27;;;;;;;;;;;;;;;;;;;;;
2024/01/18 00:08:17;;;;;;;12.93;8.57;;;;;;;3.74;49.75;98634.69;672399;29;1340;-91
2024/01/18 00:09:00;;;;;;;21.08;9.95;;;;;;;3.75;49.56;98638.16;672645;29;1283;-92
2024/01/18 00:09:24;;;;;;;16.00;9.68;;;;;;;3.64;49.64;98618.16;670751;29;1263;-92
2024/01/18 00:09:51;;;;;;;14.98;9.25;;;;;;;3.64;49.46;98614.72;672493;29;1418;-92
2024/01/18 00:10:31;;;;;;;16.35;8.90;;;;;;;3.68;49.88;98619.09;674185;29;1111;-91
2024/01/18 00:11:19;;;;;;;12.38;8.57;;;;;;;3.77;49.86;98637.34;667358;29;1737;-91
2024/01/18 00:11:46;;;;;;;12.70;8.60;;;;;;;3.66;49.30;98615.59;669832;29;1393;-91
2024/01/18 00:12:28;;;;;;;12.45;8.50;;;;;;;3.68;49.48;98614.78;672535;29;1362;-91
2024/01/18 00:13:01;;;;;;;14.65;9.00;;;;;;;3.66;49.77;98611.31;667577;29;1386;-91
2024/01/18 00:13:35;;;;;;;21.77;9.73;;;;;;;3.80;49.58;98637.41;673706;29;1280;-92
2024/01/18 00:13:58;;;;;;;19.10;10.23;;;;;;;3.75;49.83;98620.97;672354;29;1437;-91
2024/01/18 00:14:32;;;;;;;15.77;10.00;;;;;;;3.70;49.85;98612.25;672000;29;1469;-92
2024/01/18 00:14:56;;;;;;;16.77;9.35;;;;;;;3.79;49.69;98632.19;673747;29;1224;-91
2024/01/18 00:15:40;;;;;;;16.17;9.77;;;;;;;3.69;49.71;98613.97;672088;29;1211;-91
2024/01/18 00:16:15;;;;;;;15.60;9.85;;;;;;;3.69;49.71;98621.69;672602;29;1183;-91
2024/01/18 00:16:51;;;;;;;16.90;9.52;;;;;;;3.68;49.41;98621.69;671553;29;1327;-91
2024/01/18 00:17:45;;;;;;;;;;;;;;;;;;;;;
2024/01/18 00:18:22;;;;;;;17.35;10.07;;;;;;;3.77;49.20;98639.94;666723;29;1231;-92
2024/01/18 00:19:07;;;;;;;15.88;10.20;;;;;;;3.71;49.42;98629.47;669585;29;1248;-91
2024/01/18 00:19:42;;;;;;;16.40;9.85;;;;;;;3.67;49.68;98625.06;672471;29;1313;-91
2024/01/18 00:20:04;;;;;;;17.10;9.50;;;;;;;3.63;49.63;98621.59;672633;29;1251;-91
2024/01/18 00:20:40;;;;;;;15.32;9.07;;;;;;;3.66;49.56;98631.06;672553;29;1242;-92
2024/01/18 00:21:06;;;;;;;16.38;9.73;;;;;;;3.64;49.58;98638.81;674099;29;1286;-91
2024/01/18 00:24:36;;;;;;;14.65;9.30;;;;;;;3.72;49.63;98662.16;677921;29;677;-92
2024/01/18 00:25:26;;;;;;;16.23;9.40;;;;;;;3.56;49.22;98646.34;674618;29;1146;-91
2024/01/18 00:25:53;;;;;;;14.05;9.20;;;;;;;3.63;49.53;98647.38;670876;29;1306;-92
2024/01/18 00:26:17;;;;;;;15.23;9.70;;;;;;;3.74;49.39;98660.47;675021;29;1373;-92
2024/01/18 00:26:43;;;;;;;16.75;10.20;;;;;;;3.64;49.25;98653.41;672134;29;1353;-92
2024/01/18 00:27:14;;;;;;;14.23;9.60;;;;;;;3.63;49.52;98649.97;670833;29;1696;-92
2024/01/18 00:27:46;;;;;;;16.65;9.60;;;;;;;3.58;49.22;98642.94;669951;29;1332;-92
2024/01/18 00:28:25;;;;;;;22.08;9.75;;;;;;;3.58;49.29;98650.69;675765;29;1235;-92
2024/01/18 00:28:57;;;;;;;22.77;9.93;;;;;;;3.59;49.63;98642.09;672693;29;1255;-91
2024/01/18 00:29:23;;;;;;;19.60;9.20;;;;;;;3.55;49.56;98639.47;669794;29;1301;-92
2024/01/18 00:29:49;;;;;;;18.42;8.98;;;;;;;3.61;49.38;98653.34;672340;29;1141;-91
2024/01/18 00:30:28;;;;;;;16.10;8.63;;;;;;;3.66;49.23;98668.06;672337;29;1281;-91
2024/01/18 00:31:02;;;;;;;16.33;9.23;;;;;;;3.54;49.60;98648.03;674880;29;1407;-91
2024/01/18 00:31:31;;;;;;;15.30;9.50;;;;;;;3.50;49.39;98651.38;671919;29;1187;-92
2024/01/18 00:32:02;;;;;;;14.07;8.82;;;;;;;3.45;49.41;98653.00;671497;29;1322;-91
2024/01/18 00:32:36;;;;;;;15.32;9.48;;;;;;;3.42;49.56;98653.78;674709;29;1277;-91
2024/01/18 00:33:08;;;;;;;14.77;9.25;;;;;;;3.45;49.42;98654.69;672278;29;1391;-91
2024/01/18 00:33:36;;;;;;;14.50;9.13;;;;;;;3.48;49.42;98678.84;672017;29;1200;-91
2024/01/18 00:34:02;;;;;;;15.30;8.85;;;;;;;3.51;49.32;98668.63;669900;29;1319;-91
2024/01/18 00:34:30;;;;;;;15.45;8.65;;;;;;;3.55;49.54;98677.25;665741;29;1302;-91
2024/01/18 00:35:09;;;;;;;15.65;9.00;;;;;;;3.50;49.56;98666.00;671251;29;1305;-91
2024/01/18 00:35:49;;;;;;;13.93;9.00;;;;;;;3.43;49.15;98657.22;668517;29;1251;-92
2024/01/18 00:37:08;;;;;;;15.10;9.13;;;;;;;3.44;49.54;98648.69;661327;29;1490;-92
2024/01/18 00:37:49;;;;;;;15.50;9.27;;;;;;;3.40;49.12;98649.44;669875;29;1507;-91
2024/01/18 00:38:10;;;;;;;15.73;9.32;;;;;;;3.41;49.34;98646.00;674748;29;1441;-91
2024/01/18 00:38:47;;;;;;;14.25;8.88;;;;;;;3.43;49.55;98652.06;673105;29;1227;-91
2024/01/18 00:39:18;;;;;;;15.00;8.73;;;;;;;3.51;49.59;98668.63;671130;29;1243;-91
2024/01/18 00:39:59;;;;;;;15.57;8.82;;;;;;;3.38;49.38;98645.97;672528;29;1148;-92
2024/01/18 00:40:22;;;;;;;16.23;9.00;;;;;;;3.50;49.43;98663.41;669095;29;1304;-91
2024/01/18 00:40:51;;;;;;;17.40;9.65;;;;;;;3.39;49.23;98648.53;674796;29;1227;-92
2024/01/18 00:41:17;;;;;;;16.08;9.95;;;;;;;3.49;49.24;98670.25;675255;29;1488;-91
2024/01/18 00:42:18;;;;;;;10.40;8.50;;;;;;;3.34;49.10;98645.00;670077;29;1295;-91
2024/01/18 00:42:48;;;;;;;14.35;9.05;;;;;;;3.37;49.18;98649.38;672470;29;1261;-91
2024/01/18 00:43:25;;;;;;;13.52;8.50;;;;;;;3.46;49.01;98666.75;669640;29;1156;-91
2024/01/18 00:43:51;;;;;;;17.65;9.63;;;;;;;3.35;49.08;98651.91;667524;29;1348;-91
2024/01/18 00:44:19;;;;;;;15.68;9.40;;;;;;;3.34;49.08;98650.16;670646;29;1820;-90
2024/01/18 00:44:52;;;;;;;15.43;9.32;;;;;;;3.31;49.23;98644.06;672497;29;1058;-91
2024/01/18 00:45:47;;;;;;;14.18;9.55;;;;;;;3.42;49.11;98668.38;667789;29;1450;-91
2024/01/18 00:46:25;;;;;;;17.65;10.02;;;;;;;3.30;49.28;98644.91;666981;29;1272;-91
2024/01/18 00:46:57;;;;;;;18.38;9.70;;;;;;;3.39;49.35;98663.16;672476;29;1293;-90
2024/01/18 00:47:25;;;;;;;15.40;8.90;;;;;;;3.33;48.94;98644.97;669131;29;1530;-91
2024/01/18 00:48:05;;;;;;;12.60;9.00;;;;;;;3.35;49.17;98659.63;667244;29;1254;-91
2024/01/18 00:48:38;;;;;;;15.25;9.10;;;;;;;3.24;49.38;98638.75;673041;29;1193;-92
2024/01/18 00:49:10;;;;;;;16.05;9.02;;;;;;;3.22;49.20;98642.13;669848;29;1178;-91
2024/01/18 00:49:34;;;;;;;12.77;9.13;;;;;;;3.32;49.23;98662.16;671999;29;1369;-92
2024/01/18 00:50:03;;;;;;;12.07;9.18;;;;;;;3.37;49.50;98662.25;672480;29;1681;-92
2024/01/18 00:50:35;;;;;;;14.63;9.48;;;;;;;3.25;49.11;98645.66;671884;29;1645;-91
2024/01/18 00:51:13;;;;;;;13.05;9.32;;;;;;;3.22;49.67;98644.72;672365;29;1219;-91
2024/01/18 00:51:39;;;;;;;15.50;9.88;;;;;;;3.24;49.01;98643.06;672517;29;1362;-91
2024/01/18 00:52:14;;;;;;;15.55;9.60;;;;;;;3.38;49.25;98669.16;669832;29;1907;-91
2024/01/18 00:52:40;;;;;;;14.75;9.55;;;;;;;3.26;49.18;98649.13;677234;29;1124;-91
2024/01/18 00:53:21;;;;;;;17.25;9.70;;;;;;;3.26;49.06;98654.28;669843;29;1416;-91
2024/01/18 00:54:02;;;;;;;18.92;10.13;;;;;;;3.24;49.17;98653.38;670853;29;1685;-91
2024/01/18 00:54:40;;;;;;;18.55;10.15;;;;;;;3.24;49.08;98653.38;674106;29;1309;-91
2024/01/18 00:55:07;;;;;;;14.45;9.25;;;;;;;3.20;48.96;98644.69;669404;29;1358;-91
2024/01/18 00:55:48;;;;;;;14.75;9.35;;;;;;;3.22;49.16;98648.19;667438;29;1209;-91
2024/01/18 00:56:18;;;;;;;13.02;9.02;;;;;;;3.25;49.25;98655.13;671734;29;1606;-92
2024/01/18 00:56:41;;;;;;;15.75;9.68;;;;;;;3.20;49.42;98657.59;670272;29;1404;-91
2024/01/18 00:57:10;;;;;;;17.80;9.90;;;;;;;3.19;48.99;98655.81;668999;29;1426;-91
2024/01/18 00:57:38;;;;;;;14.60;9.50;;;;;;;3.21;49.39;98669.63;671985;29;1567;-91
2024/01/18 00:58:14;;;;;;;13.05;8.93;;;;;;;3.20;49.32;98673.06;670449;29;1401;-91
2024/01/18 00:58:50;;;;;;;12.55;9.05;;;;;;;3.21;49.19;98672.22;666429;29;1695;-91
2024/01/18 00:59:16;;;;;;;11.43;8.70;;;;;;;3.31;48.91;98691.31;670507;29;1598;-90
2024/01/18 00:59:41;;;;;;;12.48;8.57;;;;;;;3.22;49.17;98675.66;670045;29;1145;-91
2024/01/18 01:00:31;;;;;;;16.35;9.13;;;;;;;3.27;49.35;98692.09;669334;29;1306;-91
2024/01/18 01:01:01;;;;;;;17.05;9.65;;;;;;;3.20;49.15;98682.47;669990;29;1137;-92
2024/01/18 01:01:41;;;;;;;14.13;9.60;;;;;;;3.23;49.13;98688.59;676535;29;1423;-91
2024/01/18 01:02:13;;;;;;;11.50;8.90;;;;;;;3.31;49.14;98705.94;674884;29;1156;-92
2024/01/18 01:02:48;;;;;;;14.43;9.15;;;;;;;3.23;49.21;98696.31;669984;29;1116;-91
2024/01/18 01:03:16;;;;;;;20.35;9.35;;;;;;;3.13;49.45;98681.47;673069;29;1350;-91
2024/01/18 01:03:49;;;;;;;19.25;9.73;;;;;;;3.18;49.48;98685.00;669048;29;1729;-92
2024/01/18 01:04:13;;;;;;;17.35;10.05;;;;;;;3.30;49.29;98709.34;669904;29;1559;-91
2024/01/18 01:04:59;;;;;;;15.30;9.77;;;;;;;3.14;49.47;98683.22;670618;29;1487;-91
2024/01/18 01:05:36;;;;;;;16.83;10.10;;;;;;;3.13;49.19;98684.91;666997;29;1302;-92
2024/01/18 01:06:05;;;;;;;19.00;9.95;;;;;;;3.13;49.60;98684.03;672955;29;1411;-90
2024/01/18 01:06:46;;;;;;;17.30;9.52;;;;;;;3.17;49.59;98685.84;669249;29;1286;-91
2024/01/18 01:07:18;;;;;;;15.07;10.23;;;;;;;3.13;49.36;98686.63;669619;29;1275;-91
2024/01/18 01:08:12;;;;;;;14.13;9.68;;;;;;;3.18;49.32;98689.31;672380;29;1262;-91
2024/01/18 01:08:41;;;;;;;14.55;9.23;;;;;;;3.20;49.37;98698.84;674284;29;1422;-91
2024/01/18 01:09:12;;;;;;;14.93;9.55;;;;;;;3.26;49.54;98709.25;674760;29;1281;-91
2024/01/18 01:09:52;;;;;;;12.50;9.50;;;;;;;3.15;49.59;98697.84;672065;29;1431;-91
2024/01/18 01:10:48;;;;;;;16.50;9.18;;;;;;;3.25;49.60;98711.81;677738;29;1272;-91
2024/01/18 01:11:16;;;;;;;19.23;9.93;;;;;;;3.14;49.54;98693.50;680118;28;1334;-91
2024/01/18 01:12:04;;;;;;;14.45;9.20;;;;;;;3.14;49.40;98698.66;670010;29;1185;-92
2024/01/18 01:14:06;;;;;;;13.60;8.82;;;;;;;3.14;49.03;98704.69;677274;29;1467;-91
2024/01/18 01:15:00;;;;;;;15.93;9.10;;;;;;;3.17;49.10;98700.47;672435;29;1290;-91
2024/01/18 01:15:31;;;;;;;16.17;9.15;;;;;;;3.30;49.30;98728.25;674819;29;1141;-91
2024/01/18 01:16:19;;;;;;;14.80;9.10;;;;;;;3.18;49.10;98702.19;669899;29;1157;-91
2024/01/18 01:16:54;;;;;;;12.40;9.13;;;;;;;3.23;49.28;98711.78;672165;29;1336;-91
2024/01/18 01:17:26;;;;;;;13.40;9.35;;;;;;;3.11;49.38;98701.16;672351;29;1136;-92
2024/01/18 01:18:14;;;;;;;13.05;8.70;;;;;;;3.10;49.29;98694.25;675020;29;1264;-91
2024/01/18 01:18:38;;;;;;;14.23;8.23;;;;;;;3.14;49.23;98706.41;670108;29;1169;-91
2024/01/18 01:19:14;;;;;;;16.27;8.98;;;;;;;3.12;49.30;98702.94;669989;29;1243;-91
2024/01/18 01:19:43;;;;;;;16.58;9.77;;;;;;;3.12;49.20;98705.50;671838;29;1594;-91
2024/01/18 01:20:10;;;;;;;17.08;10.15;;;;;;;3.15;49.24;98711.56;674831;29;1241;-92
2024/01/18 01:20:43;;;;;;;14.82;9.75;;;;;;;3.15;49.50;98710.72;674357;29;1310;-91
2024/01/18 01:21:04;;;;;;;18.45;10.00;;;;;;;3.11;49.13;98703.72;671414;29;1374;-91
2024/01/18 01:21:35;;;;;;;21.90;10.40;;;;;;;3.09;49.41;98702.81;672122;29;1328;-91
2024/01/18 01:22:18;;;;;;;21.20;10.45;;;;;;;3.11;48.97;98709.78;669657;29;1243;-92
2024/01/18 01:22:47;;;;;;;16.27;9.55;;;;;;;3.20;49.00;98719.44;673739;29;1179;-92
2024/01/18 01:23:21;;;;;;;19.20;9.93;;;;;;;3.16;48.99;98712.47;669749;29;1390;-91
2024/01/18 01:24:01;;;;;;;12.95;9.30;;;;;;;3.19;49.15;98725.41;671704;29;1172;-91
2024/01/18 01:24:47;;;;;;;14.23;9.20;;;;;;;3.18;49.15;98720.25;672126;29;1345;-91
2024/01/18 01:25:16;;;;;;;14.63;8.73;;;;;;;3.10;49.56;98717.47;675037;29;1349;-91
2024/01/18 01:25:41;;;;;;;14.00;8.75;;;;;;;3.14;49.04;98721.88;672386;29;1292;-91
2024/01/18 01:26:15;;;;;;;15.82;9.45;;;;;;;3.07;49.41;98710.50;675035;29;1271;-91
2024/01/18 01:26:44;;;;;;;21.83;9.65;;;;;;;3.11;49.20;98720.09;672371;29;1192;-91
2024/01/18 01:27:26;;;;;;;21.58;9.77;;;;;;;3.09;49.14;98710.56;674367;29;1247;-91
2024/01/18 01:27:54;;;;;;;17.98;9.20;;;;;;;3.09;48.90;98714.03;669867;29;1153;-92
2024/01/18 01:28:38;;;;;;;14.25;8.95;;;;;;;3.20;49.29;98739.19;672233;29;1238;-91
2024/01/18 01:29:08;;;;;;;12.93;9.10;;;;;;;3.09;48.92;98716.59;672344;29;1260;-91
2024/01/18 01:29:37;;;;;;;14.98;9.15;;;;;;;3.12;49.01;98726.13;672079;29;1186;-90
2024/01/18 01:30:23;;;;;;;16.38;9.73;;;;;;;3.15;49.24;98736.50;672213;29;1290;-92
2024/01/18 01:30:50;;;;;;;15.05;9.50;;;;;;;3.12;49.20;98726.13;668536;29;1440;-91
2024/01/18 01:31:26;;;;;;;14.82;10.00;;;;;;;3.07;49.11;98714.81;672300;29;1285;-91
2024/01/18 01:31:48;;;;;;;15.00;9.77;;;;;;;3.09;49.15;98720.88;669463;29;1494;-91
2024/01/18 01:32:20;;;;;;;14.60;9.22;;;;;;;3.10;49.12;98722.59;667158;29;1969;-91
2024/01/18 01:32:51;;;;;;;15.35;9.00;;;;;;;3.10;49.08;98718.34;672338;29;1414;-91
2024/01/18 01:33:17;;;;;;;15.13;9.10;;;;;;;3.09;49.32;98716.59;673782;29;1263;-92
2024/01/18 01:33:44;;;;;;;14.73;9.38;;;;;;;3.10;49.07;98720.91;667201;29;1201;-92
2024/01/18 01:34:12;;;;;;;14.52;9.63;;;;;;;3.12;49.52;98726.13;669673;29;1309;-92
2024/01/18 01:34:36;;;;;;;14.68;9.93;;;;;;;3.11;49.00;98724.34;671861;29;1384;-91
2024/01/18 01:35:15;;;;;;;;;;;;;;;;;;;;;
2024/01/18 01:35:47;;;;;;;13.85;9.50;;;;;;;3.18;49.50;98736.56;669946;29;1244;-91
2024/01/18 01:36:20;;;;;;;13.35;9.23;;;;;;;3.23;49.00;98750.44;669708;29;1635;-91
2024/01/18 01:36:57;;;;;;;13.55;8.90;;;;;;;3.20;49.54;98747.81;669996;29;1238;-92
2024/01/18 01:37:36;;;;;;;14.77;9.30;;;;;;;3.20;49.36;98750.38;672013;29;1286;-92
2024/01/18 01:38:09;;;;;;;14.05;9.35;;;;;;;3.25;49.45;98748.78;669668;29;1420;-92
2024/01/18 01:38:36;;;;;;;15.35;9.32;;;;;;;3.10;49.47;98726.06;671946;29;1270;-91
2024/01/18 01:39:08;;;;;;;18.30;10.02;;;;;;;3.19;49.29;98743.44;672149;29;1342;-91
2024/01/18 01:39:33;;;;;;;18.05;10.30;;;;;;;3.14;48.95;98733.03;668965;29;1255;-91
2024/01/18 01:39:54;;;;;;;17.02;9.95;;;;;;;3.20;49.11;98747.81;672255;29;1649;-91
2024/01/18 01:40:25;;;;;;;18.55;10.32;;;;;;;3.09;49.30;98726.91;672105;29;1359;-91
2024/01/18 01:40:53;;;;;;;15.68;10.00;;;;;;;3.25;49.11;98753.06;674931;29;1287;-92
2024/01/18 01:41:22;;;;;;;11.63;9.43;;;;;;;3.13;49.59;98739.03;677206;29;1279;-91
2024/01/18 01:41:51;;;;;;;15.68;9.70;;;;;;;3.17;49.10;98737.41;671692;29;1236;-92
2024/01/18 01:42:22;;;;;;;18.10;9.70;;;;;;;3.19;48.84;98742.59;666857;29;1293;-91
2024/01/18 01:42:51;;;;;;;14.77;9.27;;;;;;;3.23;49.26;98760.75;663206;29;1273;-91
2024/01/18 01:43:30;;;;;;;13.48;9.60;;;;;;;3.09;48.89;98742.38;670041;29;1130;-91
2024/01/18 01:44:03;;;;;;;14.95;10.23;;;;;;;3.10;49.34;98738.06;668784;29;1402;-91
2024/01/18 01:44:32;;;;;;;14.88;9.63;;;;;;;3.28;48.71;98772.06;672265;29;1262;-91
2024/01/18 01:45:06;;;;;;;13.85;9.20;;;;;;;3.22;49.17;98764.16;673077;29;1397;-91
2024/01/18 01:45:39;;;;;;;13.18;9.10;;;;;;;3.07;49.08;98748.31;671797;29;1352;-91
2024/01/18 01:46:13;;;;;;;12.60;9.25;;;;;;;3.09;49.33;98742.38;673387;29;1570;-91
2024/01/18 01:46:45;;;;;;;14.05;9.57;;;;;;;3.08;49.05;98744.91;666984;29;1248;-91
2024/01/18 01:47:13;;;;;;;18.77;9.90;;;;;;;3.05;49.55;98740.53;672075;29;1353;-91
2024/01/18 01:47:53;;;;;;;19.25;10.13;;;;;;;3.11;49.29;98752.69;674753;29;1307;-91
2024/01/18 01:48:29;;;;;;;19.02;10.23;;;;;;;3.05;49.35;98734.53;674524;29;1264;-91
2024/01/18 01:48:59;;;;;;;19.35;10.10;;;;;;;3.09;49.62;98747.53;667036;29;1290;-91
2024/01/18 01:49:25;;;;;;;15.65;9.55;;;;;;;3.11;49.17;98752.69;668755;29;1406;-91
2024/01/18 01:50:24;;;;;;;22.50;10.30;;;;;;;3.14;49.26;98739.91;669436;29;1244;-91
2024/01/18 01:50:59;;;;;;;21.50;10.57;;;;;;;3.09;49.06;98733.75;669825;29;1378;-92
2024/01/18 01:51:34;;;;;;;16.45;9.95;;;;;;;3.15;49.17;98747.66;667417;29;1234;-91
2024/01/18 01:52:09;;;;;;;13.70;9.02;;;;;;;3.14;49.08;98748.50;674737;29;1309;-92
2024/01/18 01:52:42;;;;;;;14.82;9.18;;;;;;;3.15;49.22;98741.66;674277;29;1557;-91
2024/01/18 01:53:33;;;;;;;15.15;9.38;;;;;;;3.16;49.48;98753.69;672048;29;1255;-91
2024/01/18 01:54:07;;;;;;;15.35;9.60;;;;;;;3.09;49.13;98736.34;671682;29;1421;-92
2024/01/18 01:54:33;;;;;;;16.77;9.88;;;;;;;3.14;49.54;98751.06;666132;29;1450;-92
2024/01/18 01:54:58;;;;;;;15.35;9.50;;;;;;;3.14;49.24;98750.22;669560;29;1463;-91
2024/01/18 01:55:31;;;;;;;13.75;9.20;;;;;;;3.14;49.36;98745.06;668896;29;1498;-91
2024/01/18 01:56:02;;;;;;;15.35;9.80;;;;;;;3.14;49.31;98747.63;669631;29;1489;-92
2024/01/18 01:56:29;;;;;;;16.98;10.27;;;;;;;3.19;49.41;98753.75;669175;29;1408;-92
2024/01/18 01:57:08;;;;;;;16.77;9.65;;;;;;;3.18;49.36;98754.59;672361;29;1231;-91
2024/01/18 01:59:12;;;;;;;15.27;9.60;;;;;;;3.20;49.13;98750.38;672273;29;1254;-91
2024/01/18 01:59:52;;;;;;;14.07;9.38;;;;;;;3.16;49.05;98740.81;671849;29;1486;-91
2024/01/18 02:00:15;;;;;;;11.52;9.13;;;;;;;3.15;49.29;98731.34;669181;29;1549;-91
2024/01/18 02:00:58;;;;;;;14.40;9.63;;;;;;;3.34;49.10;98765.28;669270;29;1664;-91
2024/01/18 02:01:32;;;;;;;15.73;9.95;;;;;;;3.24;48.90;98746.19;667509;29;1458;-91
2024/01/18 02:02:04;;;;;;;14.60;9.70;;;;;;;3.19;48.81;98742.59;669178;29;1399;-90
2024/01/18 02:02:43;;;;;;;13.02;9.00;;;;;;;3.28;48.83;98764.34;670970;29;1209;-91
2024/01/18 02:03:10;;;;;;;14.30;9.70;;;;;;;3.26;49.05;98754.81;667103;29;1148;-91
2024/01/18 02:03:52;;;;;;;14.73;9.50;;;;;;;3.24;49.03;98765.06;664843;29;1311;-91
2024/01/18 02:04:17;;;;;;;16.05;9.73;;;;;;;3.25;49.24;98755.66;667101;29;1207;-91
2024/01/18 02:04:43;;;;;;;15.73;9.68;;;;;;;3.36;49.05;98781.69;672373;29;1238;-91
2024/01/18 02:05:10;;;;;;;14.85;9.63;;;;;;;3.23;49.40;98759.88;669605;29;1350;-91
2024/01/18 02:05:39;;;;;;;16.83;9.68;;;;;;;3.24;49.01;98756.47;672036;29;1326;-91
2024/01/18 02:06:08;;;;;;;21.67;9.52;;;;;;;3.31;49.18;98771.25;672246;29;1303;-91
2024/01/18 02:06:43;;;;;;;20.20;9.20;;;;;;;3.20;49.29;98758.13;670428;29;1311;-91
2024/01/18 02:07:15;;;;;;;16.90;9.35;;;;;;;3.19;48.88;98758.91;673958;29;1457;-91
2024/01/18 02:07:49;;;;;;;14.98;9.40;;;;;;;3.20;49.48;98758.13;669305;29;1420;-91
2024/01/18 02:08:22;;;;;;;14.55;9.50;;;;;;;3.28;49.45;98769.50;669719;29;1239;-91
2024/01/18 02:08:55;;;;;;;13.00;9.63;;;;;;;3.23;49.06;98758.19;674859;29;1332;-91
2024/01/18 02:09:25;;;;;;;14.93;9.65;;;;;;;3.21;49.28;98762.44;669443;29;1321;-91
2024/01/18 02:09:53;;;;;;;16.60;9.68;;;;;;;3.38;48.96;98787.75;672165;29;1468;-91
2024/01/18 02:10:34;;;;;;;16.10;10.02;;;;;;;3.25;49.18;98764.22;672123;29;1333;-92
2024/01/18 02:11:11;;;;;;;17.70;9.80;;;;;;;3.33;49.06;98774.75;669720;29;1279;-91
2024/01/18 02:11:43;;;;;;;22.55;9.05;;;;;;;3.34;49.10;98773.91;666979;29;1427;-92
2024/01/18 02:12:33;;;;;;;19.10;8.98;;;;;;;3.38;49.04;98782.59;669583;29;1321;-91
2024/01/18 02:13:07;;;;;;;15.88;10.48;;;;;;;3.22;49.01;98752.97;674234;29;1703;-91
2024/01/18 02:13:56;;;;;;;16.05;10.13;;;;;;;3.23;49.43;98763.34;672351;29;1373;-91
2024/01/18 02:14:24;;;;;;;15.00;10.10;;;;;;;3.28;49.15;98760.88;674594;29;1437;-91
2024/01/18 02:15:08;;;;;;;15.18;10.05;;;;;;;3.25;49.22;98758.22;672484;29;1510;-91
2024/01/18 02:15:32;;;;;;;20.00;10.30;;;;;;;3.38;49.21;98780.03;674325;29;1300;-91
2024/01/18 02:15:58;;;;;;;19.50;10.18;;;;;;;3.26;49.45;98768.56;672106;29;1462;-91
2024/01/18 02:16:25;;;;;;;19.70;10.30;;;;;;;3.28;49.22;98769.50;671857;29;1283;-91
2024/01/18 02:17:21;;;;;;;16.90;9.77;;;;;;;3.24;49.13;98756.47;672099;29;1398;-92
2024/01/18 02:17:48;;;;;;;14.38;9.23;;;;;;;3.36;49.34;98776.53;672072;29;1510;-91
2024/01/18 02:18:09;;;;;;;17.27;9.52;;;;;;;3.25;49.12;98761.66;674889;29;1283;-91
2024/01/18 02:18:49;;;;;;;18.58;10.25;;;;;;;3.27;49.22;98770.28;671890;29;1307;-91
2024/01/18 02:19:16;;;;;;;15.90;10.52;;;;;;;3.28;49.34;98764.34;672344;29;1334;-92
2024/01/18 02:19:45;;;;;;;17.25;10.27;;;;;;;3.33;49.69;98771.28;669854;29;1342;-92
2024/01/18 02:20:14;;;;;;;16.48;10.13;;;;;;;3.30;49.05;98771.22;672121;29;1277;-91
2024/01/18 02:20:44;;;;;;;16.05;10.65;;;;;;;3.31;49.21;98772.97;672220;29;1369;-91
2024/01/18 02:21:14;;;;;;;18.58;10.15;;;;;;;3.33;49.47;98771.28;669209;29;1321;-91
2024/01/18 02:21:45;;;;;;;18.15;9.65;;;;;;;3.27;49.18;98769.44;669724;29;1485;-91
2024/01/18 02:22:22;;;;;;;17.27;9.98;;;;;;;3.23;49.13;98760.75;666910;29;1205;-91
2024/01/18 02:22:54;;;;;;;17.55;10.35;;;;;;;3.25;49.37;98764.22;673996;29;1539;-91
2024/01/18 02:23:33;;;;;;;17.20;10.80;;;;;;;3.36;49.28;98784.28;674476;29;1286;-92
2024/01/18 02:24:02;;;;;;;17.95;11.05;;;;;;;3.26;49.28;98765.97;669319;29;1328;-91
2024/01/18 02:24:43;;;;;;;19.05;10.73;;;;;;;3.26;49.52;98760.81;672059;29;1280;-92
2024/01/18 02:25:27;;;;;;;16.45;9.25;;;;;;;3.31;49.31;98772.97;672326;29;1455;-91
2024/01/18 02:26:02;;;;;;;15.93;10.23;;;;;;;3.32;49.65;98766.97;669803;29;1492;-91
2024/01/18 02:26:30;;;;;;;15.30;10.60;;;;;;;3.43;49.05;98783.56;665577;29;1421;-91
2024/01/18 02:26:54;;;;;;;13.95;10.20;;;;;;;3.32;49.15;98766.97;667293;29;1548;-91
2024/01/18 02:27:28;;;;;;;14.07;9.90;;;;;;;3.30;49.23;98766.94;669540;29;1210;-91
2024/01/18 02:28:12;;;;;;;12.10;8.32;;;;;;;3.41;49.31;98782.66;672338;29;1299;-91
2024/01/18 02:29:02;;;;;;;13.25;9.50;;;;;;;3.31;49.31;98760.94;672351;29;1366;-91
2024/01/18 02:29:38;;;;;;;17.35;10.20;;;;;;;3.41;49.31;98780.09;671459;29;1156;-91
2024/01/18 02:30:02;;;;;;;14.98;9.45;;;;;;;3.34;49.43;98766.19;668777;29;1451;-92
2024/01/18 02:30:41;;;;;;;14.98;9.52;;;;;;;3.45;49.37;98781.94;670923;29;1506;-91
2024/01/18 02:31:04;;;;;;;14.82;9.80;;;;;;;3.40;49.00;98773.19;667310;29;1347;-91
2024/01/18 02:31:30;;;;;;;12.32;9.26;;;;;;;3.40;49.57;98765.47;670303;29;1145;-91
2024/01/18 02:31:56;;;;;;;12.32;9.07;;;;;;;3.50;49.06;98793.19;670143;29;1582;-91
2024/01/18 02:32:23;;;;;;;14.27;9.38;;;;;;;3.51;49.28;98782.09;672726;29;1967;-91
2024/01/18 02:33:07;;;;;;;16.05;9.88;;;;;;;3.49;49.21;98783.72;672202;29;1582;-91
2024/01/18 02:33:33;;;;;;;13.25;9.43;;;;;;;3.45;49.37;98781.94;669460;29;1263;-91
2024/01/18 02:34:14;;;;;;;11.90;9.25;;;;;;;3.53;49.28;98790.72;668394;29;1246;-91
2024/01/18 02:34:40;;;;;;;11.85;8.50;;;;;;;3.49;49.33;98788.03;666879;29;1217;-91
2024/01/18 02:35:07;;;;;;;15.60;8.55;;;;;;;3.45;49.24;98775.88;674205;29;1640;-91
2024/01/18 02:36:24;;;;;;;17.75;10.38;;;;;;;3.38;49.34;98774.88;664387;29;1310;-91
2024/01/18 02:36:50;;;;;;;23.92;10.57;;;;;;;3.48;49.62;98801.75;671622;29;1427;-91
2024/01/18 02:37:32;;;;;;;21.90;10.40;;;;;;;3.37;49.59;98771.41;671160;29;1380;-91
2024/01/18 02:37:59;;;;;;;16.90;10.13;;;;;;;3.40;49.54;98778.34;669796;29;1391;-91
2024/01/18 02:38:38;;;;;;;15.50;9.85;;;;;;;3.35;48.94;98774.78;672617;29;1158;-91
2024/01/18 02:39:08;;;;;;;16.10;9.55;;;;;;;3.49;49.13;98799.19;672284;29;1295;-91
2024/01/18 02:39:34;;;;;;;15.88;9.30;;;;;;;3.36;49.36;98772.25;670914;29;1274;-91
2024/01/18 02:40:20;;;;;;;14.27;9.10;;;;;;;3.42;49.14;98781.81;671803;29;1281;-91
2024/01/18 02:40:47;;;;;;;15.18;10.15;;;;;;;3.38;49.13;98774.88;672240;29;1301;-91
2024/01/18 02:41:18;;;;;;;14.50;10.38;;;;;;;3.42;49.16;98777.56;672150;29;1325;-91
2024/01/18 02:41:55;;;;;;;13.32;9.48;;;;;;;3.46;49.49;98786.25;674922;29;1372;-91
2024/01/18 02:42:24;;;;;;;17.55;10.05;;;;;;;3.38;49.50;98780.03;672021;29;1359;-91
2024/01/18 02:42:53;;;;;;;17.40;10.32;;;;;;;3.38;49.25;98769.72;672040;29;1231;-91
2024/01/18 02:43:27;;;;;;;14.00;9.30;;;;;;;3.37;49.29;98773.97;673887;29;1177;-91
2024/01/18 02:43:56;;;;;;;15.27;9.35;;;;;;;3.35;49.15;98774.78;674934;29;1330;-91
2024/01/18 02:44:24;;;;;;;15.95;9.77;;;;;;;3.38;49.46;98777.44;674698;29;1339;-91
2024/01/18 02:44:52;;;;;;;15.93;9.65;;;;;;;3.40;49.19;98778.34;671903;29;1243;-91
2024/01/18 02:45:24;;;;;;;18.38;9.95;;;;;;;3.36;49.64;98773.97;669850;29;1362;-90
2024/01/18 02:45:47;;;;;;;16.90;9.80;;;;;;;3.36;49.49;98771.38;664635;29;1477;-91
2024/01/18 02:46:20;;;;;;;14.20;9.32;;;;;;;3.35;49.11;98769.63;669264;29;1314;-91
2024/01/18 02:46:52;;;;;;;15.85;9.82;;;;;;;3.35;49.44;98764.47;670090;29;1270;-91
2024/01/18 02:47:19;;;;;;;17.20;9.90;;;;;;;3.37;49.38;98768.81;669062;29;1264;-91
2024/01/18 02:47:42;;;;;;;16.83;10.02;;;;;;;3.40;49.38;98773.19;671520;29;1347;-91
2024/01/18 02:48:06;;;;;;;15.82;10.32;;;;;;;3.42;49.13;98781.81;674712;29;1272;-91